createdAt,value
2022-11-20T00:01:09.854Z,27.00
2022-11-20T00:03:37.604Z,27.15
2022-11-20T00:06:06.631Z,30.73
2022-11-20T00:08:34.554Z,30.63
2022-11-20T00:11:15.341Z,31.67
2022-11-20T00:13:44.618Z,30.70
2022-11-20T00:16:12.792Z,34.47
2022-11-20T00:18:40.575Z,32.85
2022-11-20T00:21:10.519Z,29.02
2022-11-20T00:23:38.170Z,29.40
2022-11-20T00:26:10.522Z,31.00
2022-11-20T00:28:38.387Z,30.10
2022-11-20T00:31:10.300Z,28.88
2022-11-20T00:34:00.953Z,43.15
2022-11-20T00:36:29.544Z,46.13
2022-11-20T00:38:58.373Z,43.03
2022-11-20T00:41:26.393Z,40.80
2022-11-20T00:43:55.084Z,45.03
2022-11-20T00:46:23.355Z,52.58
2022-11-20T00:48:51.023Z,46.25
2022-11-20T00:54:59.887Z,36.28
2022-11-20T00:57:27.269Z,31.33
2022-11-20T00:59:54.997Z,31.00
2022-11-20T01:02:22.379Z,32.30
2022-11-20T01:04:50.363Z,31.17
2022-11-20T01:07:17.757Z,33.15
2022-11-20T01:09:45.469Z,36.65
2022-11-20T01:12:12.813Z,35.95
2022-11-20T01:14:40.459Z,35.28
2022-11-20T01:17:07.838Z,33.25
2022-11-20T01:19:35.480Z,43.17
2022-11-20T01:22:02.843Z,37.22
2022-11-20T01:24:30.523Z,36.53
2022-11-20T01:26:57.919Z,39.15
2022-11-20T01:29:25.699Z,35.65
2022-11-20T01:31:53.060Z,35.85
2022-11-20T01:34:21.502Z,38.08
2022-11-20T01:37:07.226Z,39.72
2022-11-20T01:39:53.136Z,32.80
2022-11-20T01:42:20.470Z,33.95
2022-11-20T01:44:51.036Z,33.97
2022-11-20T01:47:22.650Z,35.85
2022-11-20T01:49:58.144Z,35.65
2022-11-20T01:52:45.708Z,36.40
2022-11-20T01:55:20.247Z,33.35
2022-11-20T01:57:54.934Z,29.90
2022-11-20T02:00:22.852Z,31.30
2022-11-20T02:02:52.859Z,32.78
2022-11-20T02:05:24.311Z,32.75
2022-11-20T02:07:51.767Z,29.73
2022-11-20T02:10:19.462Z,30.63
2022-11-20T02:12:47.103Z,30.80
2022-11-20T02:15:14.923Z,31.65
2022-11-20T02:17:42.321Z,30.90
2022-11-20T02:20:10.226Z,30.48
2022-11-20T02:22:42.974Z,30.85
2022-11-20T02:25:11.256Z,31.52
2022-11-20T02:31:17.174Z,30.10
2022-11-20T02:33:44.849Z,29.85
2022-11-20T02:36:14.805Z,30.30
2022-11-20T02:38:42.890Z,31.35
2022-11-20T02:41:10.244Z,29.00
2022-11-20T02:43:37.889Z,29.48
2022-11-20T02:46:07.907Z,32.40
2022-11-20T02:48:35.623Z,33.60
2022-11-20T02:51:03.384Z,38.67
2022-11-20T02:53:31.118Z,36.00
2022-11-20T02:55:58.464Z,39.35
2022-11-20T02:58:26.112Z,35.60
2022-11-20T03:00:53.627Z,38.10
2022-11-20T03:03:21.378Z,38.03
2022-11-20T03:05:48.704Z,35.20
2022-11-20T03:08:16.605Z,34.13
2022-11-20T03:10:43.954Z,34.95
2022-11-20T03:13:11.579Z,35.47
2022-11-20T03:15:38.896Z,36.53
2022-11-20T03:18:06.743Z,37.70
2022-11-20T03:20:34.720Z,34.08
2022-11-20T03:23:02.555Z,32.65
2022-11-20T03:25:29.955Z,35.08
2022-11-20T03:27:57.667Z,33.13
2022-11-20T03:30:29.258Z,37.72
2022-11-20T03:32:58.518Z,34.30
2022-11-20T03:35:25.896Z,31.85
2022-11-20T03:37:53.545Z,28.90
2022-11-20T03:40:20.940Z,28.25
2022-11-20T03:42:48.653Z,28.45
2022-11-20T03:45:17.360Z,27.00
2022-11-20T03:47:45.671Z,27.13
2022-11-20T03:50:14.142Z,25.15
2022-11-20T03:52:41.942Z,27.30
2022-11-20T03:55:09.486Z,26.25
2022-11-20T03:57:37.100Z,28.00
2022-11-20T04:00:05.297Z,25.63
2022-11-20T04:02:32.974Z,25.73
2022-11-20T04:05:02.240Z,26.88
2022-11-20T04:07:29.947Z,26.05
2022-11-20T04:09:57.384Z,23.90
2022-11-20T04:12:25.049Z,24.90
2022-11-20T04:14:52.419Z,23.95
2022-11-20T04:17:20.051Z,24.60
2022-11-20T04:19:47.589Z,24.65
2022-11-20T04:22:15.295Z,24.52
2022-11-20T04:24:42.715Z,23.75
2022-11-20T04:27:10.372Z,25.10
2022-11-20T04:29:37.717Z,26.40
2022-11-20T04:32:05.436Z,25.10
2022-11-20T04:34:32.786Z,24.65
2022-11-20T04:37:00.474Z,22.92
2022-11-20T04:39:27.922Z,24.67
2022-11-20T04:41:55.640Z,23.60
2022-11-20T04:44:22.981Z,24.17
2022-11-20T04:46:50.644Z,22.52
2022-11-20T04:49:18.056Z,25.35
2022-11-20T04:51:45.757Z,23.23
2022-11-20T04:54:13.162Z,25.83
2022-11-20T04:56:40.791Z,24.00
2022-11-20T04:59:08.233Z,32.88
2022-11-20T05:01:36.007Z,26.58
2022-11-20T05:04:03.461Z,24.98
2022-11-20T05:06:31.182Z,24.98
2022-11-20T05:08:58.894Z,25.92
2022-11-20T05:11:26.596Z,24.67
2022-11-20T05:14:02.137Z,24.05
2022-11-20T05:16:30.010Z,25.77
2022-11-20T05:18:57.528Z,24.13
2022-11-20T05:21:25.283Z,26.58
2022-11-20T05:23:52.643Z,25.25
2022-11-20T05:26:21.813Z,26.10
2022-11-20T05:28:49.917Z,26.48
2022-11-20T05:31:25.051Z,28.50
2022-11-20T05:33:54.769Z,29.13
2022-11-20T05:36:22.476Z,32.95
2022-11-20T05:38:51.085Z,30.60
2022-11-20T05:41:20.578Z,31.77
2022-11-20T05:43:49.049Z,37.08
2022-11-20T05:49:48.854Z,30.80
2022-11-20T05:52:16.500Z,35.85
2022-11-20T05:54:43.887Z,32.33
2022-11-20T05:57:11.555Z,34.10
2022-11-20T05:59:38.879Z,32.42
2022-11-20T06:02:06.790Z,39.15
2022-11-20T06:04:35.576Z,35.08
2022-11-20T06:07:03.703Z,33.75
2022-11-20T06:09:37.406Z,36.72
2022-11-20T06:12:05.272Z,38.45
2022-11-20T06:14:32.641Z,46.53
2022-11-20T06:17:00.343Z,38.40
2022-11-20T06:19:27.699Z,42.05
2022-11-20T06:21:55.409Z,41.35
2022-11-20T06:24:22.793Z,41.42
2022-11-20T06:26:50.434Z,40.90
2022-11-20T06:29:17.885Z,39.42
2022-11-20T06:31:45.581Z,39.53
2022-11-20T06:34:12.997Z,38.28
2022-11-20T06:36:40.712Z,41.13
2022-11-20T06:39:08.052Z,37.20
2022-11-20T06:41:35.725Z,42.40
2022-11-20T06:44:04.845Z,45.13
2022-11-20T06:46:32.686Z,42.17
2022-11-20T06:49:00.060Z,35.55
2022-11-20T06:51:27.729Z,32.83
2022-11-20T06:53:55.130Z,34.10
2022-11-20T06:56:22.782Z,28.27
2022-11-20T06:58:50.134Z,25.38
2022-11-20T07:02:22.226Z,26.77
2022-11-20T07:04:50.119Z,24.70
2022-11-20T07:07:18.323Z,24.55
2022-11-20T07:09:46.261Z,37.28
2022-11-20T07:12:14.470Z,29.98
2022-11-20T07:14:42.365Z,23.60
2022-11-20T07:17:10.519Z,23.05
2022-11-20T07:19:38.402Z,24.60
2022-11-20T07:22:06.418Z,21.45
2022-11-20T07:24:33.847Z,19.02
2022-11-20T07:27:01.656Z,20.67
2022-11-20T07:29:28.985Z,19.00
2022-11-20T07:32:22.239Z,18.65
2022-11-20T07:34:49.679Z,19.75
2022-11-20T07:37:17.376Z,21.25
2022-11-20T07:39:44.752Z,20.77
2022-11-20T07:42:12.461Z,20.13
2022-11-20T07:44:39.930Z,19.10
2022-11-20T07:47:07.571Z,21.15
2022-11-20T07:49:34.894Z,20.00
2022-11-20T07:52:05.209Z,18.98
2022-11-20T07:54:32.818Z,19.02
2022-11-20T07:57:00.539Z,21.50
2022-11-20T07:59:27.939Z,20.10
2022-11-20T08:01:55.785Z,20.60
2022-11-20T08:04:23.175Z,21.17
2022-11-20T08:06:50.863Z,21.25
2022-11-20T08:09:18.349Z,20.80
2022-11-20T08:11:46.085Z,23.27
2022-11-20T08:14:13.527Z,21.85
2022-11-20T08:16:41.686Z,22.13
2022-11-20T08:19:09.164Z,19.15
2022-11-20T08:21:38.490Z,19.33
2022-11-20T08:24:06.359Z,18.92
2022-11-20T08:26:34.520Z,17.38
2022-11-20T08:29:01.995Z,17.05
2022-11-20T08:31:29.776Z,18.52
2022-11-20T08:33:57.164Z,18.13
2022-11-20T08:36:25.334Z,16.85
2022-11-20T08:38:56.713Z,16.17
2022-11-20T08:41:24.563Z,15.60
2022-11-20T08:44:01.847Z,16.92
2022-11-20T08:46:33.708Z,17.85
2022-11-20T08:49:03.757Z,17.17
2022-11-20T08:51:31.440Z,16.63
2022-11-20T08:57:20.875Z,18.02
2022-11-20T09:00:07.003Z,17.55
2022-11-20T09:02:34.754Z,15.50
2022-11-20T09:05:02.659Z,21.27
2022-11-20T09:07:30.450Z,35.58
2022-11-20T09:10:22.264Z,18.45
2022-11-20T09:12:45.592Z,19.08
2022-11-20T09:15:13.493Z,19.13
2022-11-20T09:17:40.990Z,17.08
2022-11-20T09:20:09.096Z,14.07
2022-11-20T09:22:36.512Z,15.52
2022-11-20T09:25:04.280Z,13.57
2022-11-20T09:27:31.699Z,13.70
2022-11-20T09:29:59.299Z,13.90
2022-11-20T09:32:26.653Z,14.52
2022-11-20T09:34:54.365Z,14.10
2022-11-20T09:37:21.774Z,14.35
2022-11-20T09:39:49.539Z,11.95
2022-11-20T09:42:19.767Z,12.05
2022-11-20T09:44:55.000Z,12.05
2022-11-20T09:47:28.252Z,13.82
2022-11-20T09:53:33.975Z,12.50
2022-11-20T09:56:12.821Z,12.98
2022-11-20T09:58:45.160Z,12.93
2022-11-20T10:01:17.301Z,13.68
2022-11-20T10:03:44.698Z,13.82
2022-11-20T10:09:50.477Z,13.75
2022-11-20T10:12:53.497Z,13.93
2022-11-20T10:18:11.769Z,13.35
2022-11-20T10:20:45.416Z,12.75
2022-11-20T10:23:26.149Z,13.75
2022-11-20T10:26:01.883Z,13.70
2022-11-20T10:28:35.451Z,13.77
2022-11-20T10:31:09.225Z,12.27
2022-11-20T10:33:57.181Z,11.95
2022-11-20T10:36:29.058Z,11.45
2022-11-20T10:39:07.157Z,10.80
2022-11-20T10:41:38.046Z,11.10
2022-11-20T10:44:05.770Z,11.80
2022-11-20T10:46:39.678Z,10.07
2022-11-20T10:49:25.192Z,10.52
2022-11-20T10:52:11.304Z,10.35
2022-11-20T10:54:51.196Z,10.63
2022-11-20T10:57:26.233Z,9.93
2022-11-20T11:00:00.965Z,9.27
2022-11-20T11:02:37.259Z,9.65
2022-11-20T11:05:14.703Z,8.77
2022-11-20T11:07:42.571Z,9.98
2022-11-20T11:10:33.408Z,10.00
2022-11-20T11:13:00.783Z,9.02
2022-11-20T11:15:37.940Z,10.25
2022-11-20T11:18:05.701Z,9.45
2022-11-20T11:20:33.371Z,9.48
2022-11-20T11:23:00.965Z,9.07
2022-11-20T11:25:30.261Z,11.35
2022-11-20T11:27:59.133Z,10.50
2022-11-20T11:30:27.605Z,10.10
2022-11-20T11:33:05.404Z,10.13
2022-11-20T11:35:33.322Z,9.43
2022-11-20T11:38:08.505Z,11.80
2022-11-20T11:40:37.133Z,10.27
2022-11-20T11:43:17.702Z,10.35
2022-11-20T11:45:52.890Z,8.77
2022-11-20T11:48:20.273Z,9.85
2022-11-20T11:50:51.396Z,9.57
2022-11-20T11:53:20.034Z,10.32
2022-11-20T11:56:01.786Z,10.68
2022-11-20T11:58:29.140Z,10.80
2022-11-20T12:01:15.357Z,10.25
2022-11-20T12:03:43.597Z,9.32
2022-11-20T12:06:15.453Z,9.82
2022-11-20T12:08:58.828Z,10.38
2022-11-20T12:11:32.295Z,9.48
2022-11-20T12:13:59.696Z,9.45
2022-11-20T12:16:27.350Z,10.13
2022-11-20T12:18:54.763Z,10.88
2022-11-20T12:25:23.371Z,8.75
2022-11-20T12:27:53.811Z,8.73
2022-11-20T12:30:22.212Z,9.63
2022-11-20T12:32:55.793Z,9.15
2022-11-20T12:35:38.307Z,8.52
2022-11-20T12:38:21.039Z,9.00
2022-11-20T12:43:25.805Z,8.60
2022-11-20T12:45:53.156Z,8.25
2022-11-20T12:48:44.987Z,7.80
2022-11-20T12:53:58.758Z,7.38
2022-11-20T12:56:38.243Z,8.23
2022-11-20T12:59:14.748Z,8.05
2022-11-20T13:01:48.930Z,7.47
2022-11-20T13:04:22.536Z,7.82
2022-11-20T13:06:50.087Z,8.27
2022-11-20T13:09:20.256Z,9.23
2022-11-20T13:15:32.146Z,7.72
2022-11-20T13:18:01.214Z,8.27
2022-11-20T13:20:29.208Z,7.70
2022-11-20T13:22:57.478Z,6.53
2022-11-20T13:25:24.825Z,8.20
2022-11-20T13:27:53.059Z,8.52
2022-11-20T13:30:23.862Z,7.72
2022-11-20T13:32:52.856Z,8.02
2022-11-20T13:35:46.327Z,8.65
2022-11-20T13:38:15.401Z,8.93
2022-11-20T13:40:56.516Z,8.30
2022-11-20T13:43:38.576Z,8.27
2022-11-20T13:46:07.358Z,8.83
2022-11-20T13:48:40.045Z,7.75
2022-11-20T13:53:43.962Z,6.95
2022-11-20T13:56:22.989Z,8.02
2022-11-20T13:59:04.962Z,12.05
2022-11-20T14:01:33.573Z,7.32
2022-11-20T14:04:07.423Z,8.45
2022-11-20T14:06:44.997Z,8.48
2022-11-20T14:09:32.207Z,9.65
2022-11-20T14:11:59.670Z,8.18
2022-11-20T14:14:28.668Z,9.10
2022-11-20T14:17:14.745Z,9.85
2022-11-20T14:19:43.034Z,9.18
2022-11-20T14:22:19.152Z,9.57
2022-11-20T14:24:50.256Z,8.70
2022-11-20T14:27:19.281Z,8.20
2022-11-20T14:29:48.217Z,9.32
2022-11-20T14:32:16.557Z,10.10
2022-11-20T14:34:45.419Z,9.18
2022-11-20T14:37:16.746Z,9.93
2022-11-20T14:39:50.364Z,9.50
2022-11-20T14:42:22.029Z,10.75
2022-11-20T14:44:50.536Z,10.95
2022-11-20T14:47:28.270Z,10.73
2022-11-20T14:49:56.662Z,9.10
2022-11-20T14:52:28.160Z,9.45
2022-11-20T14:54:57.310Z,9.80
2022-11-20T14:57:25.185Z,10.15
2022-11-20T15:00:04.115Z,10.52
2022-11-20T15:02:31.762Z,10.48
2022-11-20T15:08:27.414Z,11.80
2022-11-20T15:10:57.921Z,11.82
2022-11-20T15:13:32.899Z,11.77
2022-11-20T15:16:01.752Z,12.13
2022-11-20T15:18:31.871Z,14.63
2022-11-20T15:21:01.862Z,13.43
2022-11-20T15:23:30.050Z,13.85
2022-11-20T15:25:57.818Z,14.57
2022-11-20T15:28:40.220Z,14.13
2022-11-20T15:31:07.999Z,13.82
2022-11-20T15:33:35.354Z,13.57
2022-11-20T15:39:35.327Z,12.43
2022-11-20T15:42:03.020Z,12.45
2022-11-20T15:44:30.410Z,13.00
2022-11-20T15:46:58.068Z,13.00
2022-11-20T15:49:25.540Z,11.95
2022-11-20T15:51:53.328Z,13.00
2022-11-20T15:54:22.780Z,14.73
2022-11-20T15:56:51.189Z,13.40
2022-11-20T15:59:18.607Z,14.65
2022-11-20T16:01:46.345Z,15.32
2022-11-20T16:04:14.880Z,16.38
2022-11-20T16:10:14.936Z,17.02
2022-11-20T16:12:42.664Z,18.27
2022-11-20T16:15:13.655Z,16.88
2022-11-20T16:17:41.498Z,16.37
2022-11-20T16:20:11.564Z,15.95
2022-11-20T16:22:39.186Z,16.73
2022-11-20T16:25:06.633Z,18.45
2022-11-20T16:27:34.299Z,19.58
2022-11-20T16:30:01.621Z,19.00
2022-11-20T16:32:29.261Z,18.40
2022-11-20T16:34:56.921Z,19.02
2022-11-20T16:37:24.592Z,20.90
2022-11-20T16:39:52.068Z,21.10
2022-11-20T16:42:19.691Z,22.52
2022-11-20T16:44:47.248Z,25.65
2022-11-20T16:47:15.411Z,22.20
2022-11-20T16:49:43.160Z,19.48
2022-11-20T16:52:10.941Z,20.55
2022-11-20T16:54:38.717Z,20.58
2022-11-20T16:57:06.387Z,18.48
2022-11-20T16:59:33.927Z,19.42
2022-11-20T17:02:01.995Z,19.65
2022-11-20T17:04:29.599Z,20.08
2022-11-20T17:06:57.643Z,20.00
2022-11-20T17:09:25.137Z,17.98
2022-11-20T17:11:53.001Z,19.60
2022-11-20T17:14:23.527Z,19.95
2022-11-20T17:16:51.721Z,20.85
2022-11-20T17:19:21.170Z,18.92
2022-11-20T17:21:48.859Z,21.48
2022-11-20T17:24:17.866Z,22.27
2022-11-20T17:26:45.709Z,25.27
2022-11-20T17:29:14.307Z,23.90
2022-11-20T17:31:42.492Z,25.90
2022-11-20T17:34:13.992Z,27.50
2022-11-20T17:36:45.284Z,28.30
2022-11-20T17:39:13.818Z,29.37
2022-11-20T17:41:41.805Z,23.45
2022-11-20T17:44:10.296Z,25.50
2022-11-20T17:50:00.113Z,23.98
2022-11-20T17:52:27.762Z,22.00
2022-11-20T17:54:55.209Z,21.50
2022-11-20T17:57:23.677Z,20.38
2022-11-20T17:59:51.131Z,19.10
2022-11-20T18:02:18.953Z,19.52
2022-11-20T18:04:46.379Z,21.02
2022-11-20T18:07:14.062Z,20.20
2022-11-20T18:09:41.576Z,19.63
2022-11-20T18:12:09.288Z,19.60
2022-11-20T18:14:36.769Z,20.33
2022-11-20T18:17:05.806Z,19.10
2022-11-20T18:23:05.419Z,23.63
2022-11-20T18:25:33.015Z,21.45
2022-11-20T18:28:00.579Z,18.45
2022-11-20T18:33:50.556Z,18.05
2022-11-20T18:39:50.216Z,19.42
2022-11-20T18:42:17.859Z,19.60
2022-11-20T18:44:52.393Z,21.10
2022-11-20T18:47:27.427Z,22.38
2022-11-20T18:49:55.591Z,22.05
2022-11-20T18:52:27.356Z,22.95
2022-11-20T18:54:55.134Z,22.83
2022-11-20T18:57:23.856Z,21.48
2022-11-20T18:59:51.367Z,23.88
2022-11-20T19:02:19.549Z,22.17
2022-11-20T19:04:47.232Z,24.55
2022-11-20T19:07:15.352Z,22.52
2022-11-20T19:09:45.512Z,23.75
2022-11-20T19:12:13.495Z,24.20
2022-11-20T19:21:33.282Z,21.02
2022-11-20T19:24:02.064Z,20.40
2022-11-20T19:26:29.871Z,21.25
2022-11-20T19:28:57.495Z,23.52
2022-11-20T19:31:25.516Z,22.20
2022-11-20T19:33:53.900Z,21.63
2022-11-20T19:36:25.840Z,22.80
2022-11-20T19:38:53.876Z,19.90
2022-11-20T19:41:22.488Z,21.02
2022-11-20T19:43:50.134Z,24.08
2022-11-20T19:46:17.739Z,25.30
2022-11-20T19:48:45.446Z,23.25
2022-11-20T19:54:34.873Z,31.98
2022-11-20T19:57:04.497Z,32.13
2022-11-20T19:59:31.984Z,28.77
2022-11-20T20:01:59.850Z,30.75
2022-11-20T20:04:27.663Z,27.35
2022-11-20T20:06:55.665Z,29.83
2022-11-20T20:09:23.422Z,28.92
2022-11-20T20:11:51.293Z,28.20
2022-11-20T20:14:21.370Z,28.67
2022-11-20T20:16:49.292Z,28.60
2022-11-20T20:19:16.792Z,29.58
2022-11-20T20:21:47.383Z,30.25
2022-11-20T20:24:14.813Z,29.67
2022-11-20T20:29:51.061Z,30.77
2022-11-20T20:32:27.733Z,28.70
2022-11-20T20:46:11.805Z,37.17
2022-11-20T20:48:39.530Z,36.97
2022-11-20T20:51:07.006Z,39.45
2022-11-20T20:53:38.762Z,36.40
2022-11-20T20:56:06.472Z,41.90
2022-11-20T20:58:36.672Z,34.22
2022-11-20T21:01:05.384Z,35.00
2022-11-20T21:03:33.710Z,33.63
2022-11-20T21:06:01.365Z,30.33
2022-11-20T21:08:29.275Z,35.80
2022-11-20T21:11:02.621Z,31.65
2022-11-20T21:16:52.466Z,29.92
2022-11-20T21:19:20.308Z,28.83
2022-11-20T21:21:47.694Z,27.27
2022-11-20T21:27:37.561Z,30.17
2022-11-20T21:30:05.363Z,36.45
2022-11-20T21:32:32.774Z,39.13
2022-11-20T21:35:03.030Z,31.15
2022-11-20T21:37:36.025Z,65.15
2022-11-20T21:40:07.702Z,74.97
2022-11-20T21:42:35.206Z,45.38
2022-11-20T21:45:06.172Z,45.72
2022-11-20T21:47:33.702Z,59.90
2022-11-20T21:50:01.615Z,80.88
2022-11-20T21:52:29.074Z,70.15
2022-11-20T21:54:56.801Z,108.80
2022-11-20T21:57:24.191Z,95.97
2022-11-20T21:59:52.236Z,59.50
2022-11-20T22:02:19.729Z,52.90
2022-11-20T22:04:48.725Z,44.78
2022-11-20T22:07:16.476Z,45.63
2022-11-20T22:09:44.617Z,44.47
2022-11-20T22:12:12.004Z,38.08
2022-11-20T22:14:39.631Z,38.63
2022-11-20T22:17:12.002Z,37.33
2022-11-20T22:19:45.742Z,35.88
2022-11-20T22:22:13.196Z,36.15
2022-11-20T22:24:43.502Z,36.95
2022-11-20T22:30:14.779Z,37.53
2022-11-20T22:32:42.242Z,35.30
2022-11-20T22:35:09.992Z,40.10
2022-11-20T22:37:37.385Z,39.38
2022-11-20T22:40:05.414Z,41.00
2022-11-20T22:42:32.860Z,43.60
2022-11-20T22:45:00.632Z,51.08
2022-11-20T22:47:28.104Z,56.25
2022-11-20T22:49:55.745Z,59.83
2022-11-20T22:52:23.144Z,48.90
2022-11-20T22:54:50.795Z,45.78
2022-11-20T22:57:18.174Z,42.38
2022-11-20T23:03:28.270Z,39.55
2022-11-20T23:05:58.466Z,45.05
2022-11-20T23:08:26.024Z,57.15
2022-11-20T23:10:58.046Z,63.80
2022-11-20T23:13:25.427Z,62.67
2022-11-20T23:15:53.170Z,47.63
2022-11-20T23:18:20.573Z,44.30
2022-11-20T23:20:48.241Z,47.10
2022-11-20T23:23:15.663Z,48.83
2022-11-20T23:25:43.310Z,48.13
2022-11-20T23:28:10.827Z,44.90
2022-11-20T23:30:38.578Z,45.65
2022-11-20T23:33:05.939Z,43.42
2022-11-20T23:35:37.937Z,43.75
2022-11-20T23:38:05.420Z,49.50
2022-11-20T23:40:38.688Z,45.75
2022-11-20T23:43:08.645Z,43.92
2022-11-20T23:45:37.922Z,45.50
2022-11-20T23:48:05.488Z,43.42
2022-11-20T23:50:33.438Z,46.08
2022-11-20T23:53:01.244Z,42.83
2022-11-20T23:55:28.996Z,39.70
2022-11-20T23:57:56.484Z,45.42
